sensor_id;sensor_type;location;lat;lon;timestamp;P1;durP1;ratioP1;P2;durP2;ratioP2
48403;SDS011;34202;52.536;6.042;2023-11-19T00:02:11;18.80;;;6.60;;
48403;SDS011;34202;52.536;6.042;2023-11-19T00:07:12;14.60;;;5.80;;
48403;SDS011;34202;52.536;6.042;2023-11-19T00:12:14;15.40;;;4.80;;
48403;SDS011;34202;52.536;6.042;2023-11-19T00:17:14;11.30;;;4.30;;
48403;SDS011;34202;52.536;6.042;2023-11-19T00:22:14;11.90;;;3.90;;
48403;SDS011;34202;52.536;6.042;2023-11-19T00:27:15;18.10;;;7.40;;
48403;SDS011;34202;52.536;6.042;2023-11-19T00:32:15;17.80;;;4.60;;
48403;SDS011;34202;52.536;6.042;2023-11-19T00:37:16;10.80;;;3.80;;
48403;SDS011;34202;52.536;6.042;2023-11-19T00:42:17;14.70;;;3.90;;
48403;SDS011;34202;52.536;6.042;2023-11-19T00:47:18;13.30;;;3.50;;
48403;SDS011;34202;52.536;6.042;2023-11-19T00:52:20;11.90;;;3.10;;
48403;SDS011;34202;52.536;6.042;2023-11-19T00:57:22;13.20;;;4.10;;
48403;SDS011;34202;52.536;6.042;2023-11-19T01:02:24;11.60;;;2.50;;
48403;SDS011;34202;52.536;6.042;2023-11-19T01:07:24;12.10;;;3.00;;
48403;SDS011;34202;52.536;6.042;2023-11-19T01:12:26;20.60;;;3.90;;
48403;SDS011;34202;52.536;6.042;2023-11-19T01:17:26;16.60;;;4.20;;
48403;SDS011;34202;52.536;6.042;2023-11-19T01:22:27;20.70;;;3.70;;
48403;SDS011;34202;52.536;6.042;2023-11-19T01:27:27;23.20;;;3.60;;
48403;SDS011;34202;52.536;6.042;2023-11-19T01:32:28;11.00;;;3.10;;
48403;SDS011;34202;52.536;6.042;2023-11-19T01:37:28;20.00;;;3.70;;
48403;SDS011;34202;52.536;6.042;2023-11-19T01:42:28;20.50;;;3.30;;
48403;SDS011;34202;52.536;6.042;2023-11-19T01:47:29;29.60;;;3.90;;
48403;SDS011;34202;52.536;6.042;2023-11-19T01:52:30;26.30;;;4.20;;
48403;SDS011;34202;52.536;6.042;2023-11-19T01:57:32;22.90;;;4.10;;
48403;SDS011;34202;52.536;6.042;2023-11-19T02:02:32;23.00;;;3.60;;
48403;SDS011;34202;52.536;6.042;2023-11-19T02:07:33;30.00;;;5.60;;
48403;SDS011;34202;52.536;6.042;2023-11-19T02:12:33;30.10;;;4.30;;
48403;SDS011;34202;52.536;6.042;2023-11-19T02:17:35;23.90;;;6.70;;
48403;SDS011;34202;52.536;6.042;2023-11-19T02:22:37;21.20;;;5.30;;
48403;SDS011;34202;52.536;6.042;2023-11-19T02:27:57;26.70;;;5.40;;
48403;SDS011;34202;52.536;6.042;2023-11-19T02:32:59;26.90;;;5.10;;
48403;SDS011;34202;52.536;6.042;2023-11-19T02:38:05;37.90;;;6.70;;
48403;SDS011;34202;52.536;6.042;2023-11-19T02:43:06;22.20;;;5.10;;
48403;SDS011;34202;52.536;6.042;2023-11-19T02:48:08;37.10;;;8.20;;
48403;SDS011;34202;52.536;6.042;2023-11-19T02:53:09;32.60;;;6.50;;
48403;SDS011;34202;52.536;6.042;2023-11-19T02:58:10;26.60;;;6.10;;
48403;SDS011;34202;52.536;6.042;2023-11-19T03:03:19;35.00;;;5.40;;
48403;SDS011;34202;52.536;6.042;2023-11-19T03:08:20;35.70;;;5.60;;
48403;SDS011;34202;52.536;6.042;2023-11-19T03:13:22;32.30;;;8.40;;
48403;SDS011;34202;52.536;6.042;2023-11-19T03:18:22;36.20;;;6.40;;
48403;SDS011;34202;52.536;6.042;2023-11-19T03:23:23;46.90;;;9.50;;
48403;SDS011;34202;52.536;6.042;2023-11-19T03:28:23;31.10;;;6.60;;
48403;SDS011;34202;52.536;6.042;2023-11-19T03:33:23;28.10;;;5.80;;
48403;SDS011;34202;52.536;6.042;2023-11-19T03:38:25;33.40;;;6.70;;
48403;SDS011;34202;52.536;6.042;2023-11-19T03:43:26;28.80;;;6.10;;
48403;SDS011;34202;52.536;6.042;2023-11-19T03:48:27;34.90;;;5.40;;
48403;SDS011;34202;52.536;6.042;2023-11-19T03:53:27;26.70;;;5.50;;
48403;SDS011;34202;52.536;6.042;2023-11-19T03:58:27;27.90;;;6.30;;
48403;SDS011;34202;52.536;6.042;2023-11-19T04:03:28;38.10;;;7.40;;
48403;SDS011;34202;52.536;6.042;2023-11-19T04:08:28;30.80;;;7.30;;
48403;SDS011;34202;52.536;6.042;2023-11-19T04:13:29;30.70;;;7.90;;
48403;SDS011;34202;52.536;6.042;2023-11-19T04:18:29;28.70;;;5.20;;
48403;SDS011;34202;52.536;6.042;2023-11-19T04:23:30;29.00;;;6.60;;
48403;SDS011;34202;52.536;6.042;2023-11-19T04:28:31;41.00;;;6.60;;
48403;SDS011;34202;52.536;6.042;2023-11-19T04:33:31;29.60;;;6.10;;
48403;SDS011;34202;52.536;6.042;2023-11-19T04:38:32;39.20;;;6.90;;
48403;SDS011;34202;52.536;6.042;2023-11-19T04:43:32;39.20;;;6.70;;
48403;SDS011;34202;52.536;6.042;2023-11-19T04:48:32;30.90;;;7.60;;
48403;SDS011;34202;52.536;6.042;2023-11-19T04:53:33;40.30;;;7.80;;
48403;SDS011;34202;52.536;6.042;2023-11-19T04:58:33;45.40;;;8.80;;
48403;SDS011;34202;52.536;6.042;2023-11-19T05:03:34;43.40;;;9.60;;
48403;SDS011;34202;52.536;6.042;2023-11-19T05:08:36;43.90;;;8.40;;
48403;SDS011;34202;52.536;6.042;2023-11-19T05:13:37;34.50;;;6.90;;
48403;SDS011;34202;52.536;6.042;2023-11-19T05:18:38;44.80;;;6.90;;
48403;SDS011;34202;52.536;6.042;2023-11-19T05:23:38;32.50;;;5.80;;
48403;SDS011;34202;52.536;6.042;2023-11-19T05:28:39;51.50;;;7.90;;
48403;SDS011;34202;52.536;6.042;2023-11-19T05:33:39;40.40;;;6.30;;
48403;SDS011;34202;52.536;6.042;2023-11-19T05:38:40;38.30;;;7.30;;
48403;SDS011;34202;52.536;6.042;2023-11-19T05:43:40;36.40;;;6.40;;
48403;SDS011;34202;52.536;6.042;2023-11-19T05:48:41;36.30;;;6.90;;
48403;SDS011;34202;52.536;6.042;2023-11-19T05:53:41;34.70;;;5.90;;
48403;SDS011;34202;52.536;6.042;2023-11-19T05:58:42;51.40;;;9.50;;
48403;SDS011;34202;52.536;6.042;2023-11-19T06:03:44;40.20;;;7.50;;
48403;SDS011;34202;52.536;6.042;2023-11-19T06:08:49;35.50;;;8.80;;
48403;SDS011;34202;52.536;6.042;2023-11-19T06:13:50;38.60;;;6.10;;
48403;SDS011;34202;52.536;6.042;2023-11-19T06:18:51;43.00;;;8.60;;
48403;SDS011;34202;52.536;6.042;2023-11-19T06:23:51;40.30;;;8.10;;
48403;SDS011;34202;52.536;6.042;2023-11-19T06:28:53;26.60;;;5.70;;
48403;SDS011;34202;52.536;6.042;2023-11-19T06:33:54;43.00;;;6.30;;
48403;SDS011;34202;52.536;6.042;2023-11-19T06:38:54;41.10;;;5.90;;
48403;SDS011;34202;52.536;6.042;2023-11-19T06:43:55;35.80;;;6.70;;
48403;SDS011;34202;52.536;6.042;2023-11-19T06:48:55;36.10;;;8.60;;
48403;SDS011;34202;52.536;6.042;2023-11-19T06:53:56;40.30;;;6.50;;
48403;SDS011;34202;52.536;6.042;2023-11-19T06:58:56;38.00;;;6.20;;
48403;SDS011;34202;52.536;6.042;2023-11-19T07:03:57;47.50;;;10.50;;
48403;SDS011;34202;52.536;6.042;2023-11-19T07:08:58;36.00;;;7.30;;
48403;SDS011;34202;52.536;6.042;2023-11-19T07:13:58;34.50;;;6.10;;
48403;SDS011;34202;52.536;6.042;2023-11-19T07:19:01;34.20;;;6.20;;
48403;SDS011;34202;52.536;6.042;2023-11-19T07:24:02;40.80;;;7.80;;
48403;SDS011;34202;52.536;6.042;2023-11-19T07:29:03;38.40;;;6.50;;
48403;SDS011;34202;52.536;6.042;2023-11-19T07:34:07;39.90;;;6.40;;
48403;SDS011;34202;52.536;6.042;2023-11-19T07:39:09;36.50;;;6.90;;
48403;SDS011;34202;52.536;6.042;2023-11-19T07:44:09;40.90;;;8.90;;
48403;SDS011;34202;52.536;6.042;2023-11-19T07:49:11;33.10;;;6.70;;
48403;SDS011;34202;52.536;6.042;2023-11-19T07:54:11;34.00;;;5.60;;
48403;SDS011;34202;52.536;6.042;2023-11-19T07:59:12;33.00;;;6.10;;
48403;SDS011;34202;52.536;6.042;2023-11-19T08:04:12;42.70;;;7.60;;
48403;SDS011;34202;52.536;6.042;2023-11-19T08:09:12;42.40;;;6.10;;
48403;SDS011;34202;52.536;6.042;2023-11-19T08:14:13;44.60;;;7.20;;
48403;SDS011;34202;52.536;6.042;2023-11-19T08:19:13;37.10;;;7.10;;
48403;SDS011;34202;52.536;6.042;2023-11-19T08:24:14;31.10;;;7.00;;
48403;SDS011;34202;52.536;6.042;2023-11-19T08:29:15;43.10;;;7.60;;
48403;SDS011;34202;52.536;6.042;2023-11-19T08:34:15;38.30;;;7.10;;
48403;SDS011;34202;52.536;6.042;2023-11-19T08:39:15;38.80;;;7.30;;
48403;SDS011;34202;52.536;6.042;2023-11-19T08:44:17;43.00;;;7.30;;
48403;SDS011;34202;52.536;6.042;2023-11-19T08:49:19;50.10;;;9.40;;
48403;SDS011;34202;52.536;6.042;2023-11-19T08:54:19;40.20;;;6.10;;
48403;SDS011;34202;52.536;6.042;2023-11-19T08:59:21;45.20;;;6.20;;
48403;SDS011;34202;52.536;6.042;2023-11-19T09:04:21;39.80;;;7.90;;
48403;SDS011;34202;52.536;6.042;2023-11-19T09:09:24;42.20;;;6.80;;
48403;SDS011;34202;52.536;6.042;2023-11-19T09:14:25;38.90;;;6.90;;
48403;SDS011;34202;52.536;6.042;2023-11-19T09:19:26;41.10;;;7.90;;
48403;SDS011;34202;52.536;6.042;2023-11-19T09:24:27;41.10;;;6.00;;
48403;SDS011;34202;52.536;6.042;2023-11-19T09:29:27;36.90;;;5.70;;
48403;SDS011;34202;52.536;6.042;2023-11-19T09:34:27;49.30;;;7.70;;
48403;SDS011;34202;52.536;6.042;2023-11-19T09:39:28;40.60;;;7.70;;
48403;SDS011;34202;52.536;6.042;2023-11-19T09:44:28;39.70;;;9.10;;
48403;SDS011;34202;52.536;6.042;2023-11-19T09:49:29;41.60;;;8.90;;
48403;SDS011;34202;52.536;6.042;2023-11-19T09:54:30;42.90;;;6.90;;
48403;SDS011;34202;52.536;6.042;2023-11-19T09:59:31;50.30;;;8.80;;
48403;SDS011;34202;52.536;6.042;2023-11-19T10:04:33;47.20;;;9.30;;
48403;SDS011;34202;52.536;6.042;2023-11-19T10:09:36;52.00;;;11.00;;
48403;SDS011;34202;52.536;6.042;2023-11-19T10:14:36;34.70;;;7.70;;
48403;SDS011;34202;52.536;6.042;2023-11-19T10:19:39;41.60;;;6.70;;
48403;SDS011;34202;52.536;6.042;2023-11-19T10:24:41;51.00;;;8.00;;
48403;SDS011;34202;52.536;6.042;2023-11-19T10:29:45;43.40;;;7.80;;
48403;SDS011;34202;52.536;6.042;2023-11-19T10:34:47;44.70;;;7.40;;
48403;SDS011;34202;52.536;6.042;2023-11-19T10:39:53;41.90;;;8.60;;
48403;SDS011;34202;52.536;6.042;2023-11-19T10:44:54;41.60;;;6.80;;
48403;SDS011;34202;52.536;6.042;2023-11-19T10:49:55;33.30;;;5.70;;
48403;SDS011;34202;52.536;6.042;2023-11-19T10:54:55;38.80;;;6.00;;
48403;SDS011;34202;52.536;6.042;2023-11-19T11:00:01;52.10;;;9.00;;
48403;SDS011;34202;52.536;6.042;2023-11-19T11:05:04;36.70;;;6.90;;
48403;SDS011;34202;52.536;6.042;2023-11-19T11:10:06;34.20;;;7.60;;
48403;SDS011;34202;52.536;6.042;2023-11-19T11:15:10;37.00;;;8.40;;
48403;SDS011;34202;52.536;6.042;2023-11-19T11:20:14;39.00;;;8.30;;
48403;SDS011;34202;52.536;6.042;2023-11-19T11:57:01;39.20;;;6.40;;
48403;SDS011;34202;52.536;6.042;2023-11-19T12:02:13;33.00;;;7.10;;
48403;SDS011;34202;52.536;6.042;2023-11-19T12:07:17;31.00;;;6.00;;
48403;SDS011;34202;52.536;6.042;2023-11-19T12:12:26;37.50;;;7.00;;
48403;SDS011;34202;52.536;6.042;2023-11-19T12:22:35;33.00;;;5.00;;
48403;SDS011;34202;52.536;6.042;2023-11-19T12:37:46;30.50;;;5.50;;
48403;SDS011;34202;52.536;6.042;2023-11-19T12:42:48;30.90;;;4.90;;
48403;SDS011;34202;52.536;6.042;2023-11-19T12:47:50;25.60;;;5.30;;
48403;SDS011;34202;52.536;6.042;2023-11-19T12:53:12;26.00;;;4.30;;
48403;SDS011;34202;52.536;6.042;2023-11-19T12:58:30;20.50;;;4.80;;
48403;SDS011;34202;52.536;6.042;2023-11-19T13:03:33;25.90;;;4.70;;
48403;SDS011;34202;52.536;6.042;2023-11-19T13:13:56;29.30;;;4.80;;
48403;SDS011;34202;52.536;6.042;2023-11-19T13:18:58;26.70;;;5.40;;
48403;SDS011;34202;52.536;6.042;2023-11-19T13:24:00;30.00;;;4.50;;
48403;SDS011;34202;52.536;6.042;2023-11-19T13:29:00;27.90;;;4.70;;
48403;SDS011;34202;52.536;6.042;2023-11-19T13:34:01;26.40;;;5.20;;
48403;SDS011;34202;52.536;6.042;2023-11-19T13:39:01;31.00;;;4.90;;
48403;SDS011;34202;52.536;6.042;2023-11-19T13:44:01;25.80;;;4.90;;
48403;SDS011;34202;52.536;6.042;2023-11-19T13:49:02;34.00;;;7.10;;
48403;SDS011;34202;52.536;6.042;2023-11-19T13:54:03;26.60;;;5.90;;
48403;SDS011;34202;52.536;6.042;2023-11-19T13:59:03;23.70;;;5.70;;
48403;SDS011;34202;52.536;6.042;2023-11-19T14:04:04;25.10;;;6.50;;
48403;SDS011;34202;52.536;6.042;2023-11-19T14:09:09;34.50;;;5.80;;
48403;SDS011;34202;52.536;6.042;2023-11-19T14:14:09;29.00;;;5.50;;
48403;SDS011;34202;52.536;6.042;2023-11-19T14:19:10;26.10;;;5.60;;
48403;SDS011;34202;52.536;6.042;2023-11-19T14:24:10;23.80;;;4.80;;
48403;SDS011;34202;52.536;6.042;2023-11-19T14:29:11;26.00;;;4.20;;
48403;SDS011;34202;52.536;6.042;2023-11-19T14:34:11;24.90;;;5.00;;
48403;SDS011;34202;52.536;6.042;2023-11-19T14:39:11;24.40;;;5.00;;
48403;SDS011;34202;52.536;6.042;2023-11-19T14:44:12;21.60;;;3.60;;
48403;SDS011;34202;52.536;6.042;2023-11-19T14:49:12;19.40;;;3.80;;
48403;SDS011;34202;52.536;6.042;2023-11-19T14:54:14;19.60;;;3.90;;
48403;SDS011;34202;52.536;6.042;2023-11-19T14:59:15;23.80;;;4.50;;
48403;SDS011;34202;52.536;6.042;2023-11-19T15:04:16;31.80;;;5.50;;
48403;SDS011;34202;52.536;6.042;2023-11-19T15:09:17;26.20;;;4.10;;
48403;SDS011;34202;52.536;6.042;2023-11-19T15:14:17;25.20;;;5.50;;
48403;SDS011;34202;52.536;6.042;2023-11-19T15:19:19;24.80;;;3.60;;
48403;SDS011;34202;52.536;6.042;2023-11-19T15:24:20;26.50;;;5.00;;
48403;SDS011;34202;52.536;6.042;2023-11-19T15:29:20;21.80;;;6.00;;
48403;SDS011;34202;52.536;6.042;2023-11-19T15:34:21;23.30;;;5.80;;
48403;SDS011;34202;52.536;6.042;2023-11-19T15:39:22;22.20;;;6.20;;
48403;SDS011;34202;52.536;6.042;2023-11-19T15:44:22;27.40;;;5.80;;
48403;SDS011;34202;52.536;6.042;2023-11-19T15:49:24;23.20;;;4.70;;
48403;SDS011;34202;52.536;6.042;2023-11-19T15:54:24;32.70;;;6.10;;
48403;SDS011;34202;52.536;6.042;2023-11-19T15:59:24;25.10;;;6.20;;
48403;SDS011;34202;52.536;6.042;2023-11-19T16:04:25;24.20;;;4.90;;
48403;SDS011;34202;52.536;6.042;2023-11-19T16:09:25;41.90;;;8.30;;
48403;SDS011;34202;52.536;6.042;2023-11-19T16:14:28;28.40;;;6.00;;
48403;SDS011;34202;52.536;6.042;2023-11-19T16:19:29;39.70;;;6.30;;
48403;SDS011;34202;52.536;6.042;2023-11-19T16:24:29;31.90;;;7.00;;
48403;SDS011;34202;52.536;6.042;2023-11-19T16:29:29;28.70;;;5.70;;
48403;SDS011;34202;52.536;6.042;2023-11-19T16:34:30;29.60;;;6.30;;
48403;SDS011;34202;52.536;6.042;2023-11-19T16:39:30;37.80;;;6.60;;
48403;SDS011;34202;52.536;6.042;2023-11-19T16:44:31;30.10;;;5.80;;
48403;SDS011;34202;52.536;6.042;2023-11-19T16:49:31;27.10;;;5.60;;
48403;SDS011;34202;52.536;6.042;2023-11-19T16:54:32;29.80;;;5.30;;
48403;SDS011;34202;52.536;6.042;2023-11-19T16:59:33;27.50;;;5.10;;
48403;SDS011;34202;52.536;6.042;2023-11-19T17:04:33;32.10;;;6.20;;
48403;SDS011;34202;52.536;6.042;2023-11-19T17:09:34;23.60;;;6.40;;
48403;SDS011;34202;52.536;6.042;2023-11-19T17:14:34;24.60;;;5.00;;
48403;SDS011;34202;52.536;6.042;2023-11-19T17:19:35;25.40;;;4.90;;
48403;SDS011;34202;52.536;6.042;2023-11-19T17:24:35;31.90;;;5.20;;
48403;SDS011;34202;52.536;6.042;2023-11-19T17:29:36;34.50;;;5.80;;
48403;SDS011;34202;52.536;6.042;2023-11-19T17:34:38;40.00;;;8.30;;
48403;SDS011;34202;52.536;6.042;2023-11-19T17:39:38;29.10;;;7.10;;
48403;SDS011;34202;52.536;6.042;2023-11-19T17:44:39;28.40;;;5.00;;
48403;SDS011;34202;52.536;6.042;2023-11-19T17:49:39;32.50;;;6.30;;
48403;SDS011;34202;52.536;6.042;2023-11-19T17:54:40;26.10;;;5.90;;
48403;SDS011;34202;52.536;6.042;2023-11-19T17:59:41;21.50;;;3.70;;
48403;SDS011;34202;52.536;6.042;2023-11-19T18:04:45;24.10;;;5.70;;
48403;SDS011;34202;52.536;6.042;2023-11-19T18:09:49;18.70;;;4.90;;
48403;SDS011;34202;52.536;6.042;2023-11-19T18:14:49;21.60;;;4.40;;
48403;SDS011;34202;52.536;6.042;2023-11-19T18:19:50;18.30;;;4.70;;
48403;SDS011;34202;52.536;6.042;2023-11-19T18:24:51;20.50;;;3.90;;
48403;SDS011;34202;52.536;6.042;2023-11-19T18:29:51;14.00;;;2.90;;
48403;SDS011;34202;52.536;6.042;2023-11-19T18:34:53;12.10;;;3.30;;
48403;SDS011;34202;52.536;6.042;2023-11-19T18:39:53;15.10;;;2.80;;
48403;SDS011;34202;52.536;6.042;2023-11-19T18:44:54;13.50;;;3.20;;
48403;SDS011;34202;52.536;6.042;2023-11-19T18:49:54;15.40;;;3.50;;
48403;SDS011;34202;52.536;6.042;2023-11-19T18:54:55;12.00;;;2.50;;
48403;SDS011;34202;52.536;6.042;2023-11-19T18:59:55;14.00;;;2.60;;
48403;SDS011;34202;52.536;6.042;2023-11-19T19:04:55;11.10;;;3.30;;
48403;SDS011;34202;52.536;6.042;2023-11-19T19:09:56;12.90;;;3.30;;
48403;SDS011;34202;52.536;6.042;2023-11-19T19:14:57;9.50;;;3.90;;
48403;SDS011;34202;52.536;6.042;2023-11-19T19:20:00;15.00;;;2.70;;
48403;SDS011;34202;52.536;6.042;2023-11-19T19:25:00;10.80;;;3.20;;
48403;SDS011;34202;52.536;6.042;2023-11-19T19:30:01;17.00;;;4.00;;
48403;SDS011;34202;52.536;6.042;2023-11-19T19:35:01;17.20;;;3.90;;
48403;SDS011;34202;52.536;6.042;2023-11-19T19:40:02;13.50;;;3.30;;
48403;SDS011;34202;52.536;6.042;2023-11-19T19:45:04;20.00;;;4.30;;
48403;SDS011;34202;52.536;6.042;2023-11-19T19:50:06;18.80;;;4.30;;
48403;SDS011;34202;52.536;6.042;2023-11-19T19:55:10;16.30;;;3.10;;
48403;SDS011;34202;52.536;6.042;2023-11-19T20:00:10;13.50;;;4.20;;
48403;SDS011;34202;52.536;6.042;2023-11-19T20:05:14;12.10;;;3.60;;
48403;SDS011;34202;52.536;6.042;2023-11-19T20:10:15;17.40;;;3.90;;
48403;SDS011;34202;52.536;6.042;2023-11-19T20:15:15;16.00;;;3.70;;
48403;SDS011;34202;52.536;6.042;2023-11-19T20:20:20;17.00;;;3.30;;
48403;SDS011;34202;52.536;6.042;2023-11-19T20:25:20;19.20;;;5.00;;
48403;SDS011;34202;52.536;6.042;2023-11-19T20:30:21;23.50;;;3.60;;
48403;SDS011;34202;52.536;6.042;2023-11-19T20:35:21;16.60;;;3.30;;
48403;SDS011;34202;52.536;6.042;2023-11-19T20:40:21;21.40;;;4.60;;
48403;SDS011;34202;52.536;6.042;2023-11-19T20:45:22;16.60;;;4.00;;
48403;SDS011;34202;52.536;6.042;2023-11-19T20:50:27;21.70;;;5.20;;
48403;SDS011;34202;52.536;6.042;2023-11-19T20:55:28;19.40;;;4.70;;
48403;SDS011;34202;52.536;6.042;2023-11-19T21:00:28;23.20;;;4.10;;
48403;SDS011;34202;52.536;6.042;2023-11-19T21:05:29;25.60;;;5.60;;
48403;SDS011;34202;52.536;6.042;2023-11-19T21:10:30;15.10;;;3.00;;
48403;SDS011;34202;52.536;6.042;2023-11-19T21:15:30;14.70;;;3.10;;
48403;SDS011;34202;52.536;6.042;2023-11-19T21:20:30;18.50;;;4.50;;
48403;SDS011;34202;52.536;6.042;2023-11-19T21:25:31;20.40;;;3.70;;
48403;SDS011;34202;52.536;6.042;2023-11-19T21:30:32;24.60;;;4.60;;
48403;SDS011;34202;52.536;6.042;2023-11-19T21:35:33;16.30;;;3.80;;
48403;SDS011;34202;52.536;6.042;2023-11-19T21:40:34;19.90;;;3.80;;
48403;SDS011;34202;52.536;6.042;2023-11-19T21:45:34;21.20;;;4.50;;
48403;SDS011;34202;52.536;6.042;2023-11-19T21:50:35;19.80;;;3.10;;
48403;SDS011;34202;52.536;6.042;2023-11-19T21:55:36;27.40;;;4.60;;
48403;SDS011;34202;52.536;6.042;2023-11-19T22:00:36;22.40;;;3.80;;
48403;SDS011;34202;52.536;6.042;2023-11-19T22:05:37;25.40;;;4.40;;
48403;SDS011;34202;52.536;6.042;2023-11-19T22:10:37;20.30;;;5.70;;
48403;SDS011;34202;52.536;6.042;2023-11-19T22:15:37;17.40;;;3.50;;
48403;SDS011;34202;52.536;6.042;2023-11-19T22:20:38;20.60;;;4.40;;
48403;SDS011;34202;52.536;6.042;2023-11-19T22:25:38;17.40;;;3.70;;
48403;SDS011;34202;52.536;6.042;2023-11-19T22:30:38;21.40;;;4.80;;
48403;SDS011;34202;52.536;6.042;2023-11-19T22:35:39;22.50;;;3.80;;
48403;SDS011;34202;52.536;6.042;2023-11-19T22:40:39;17.00;;;3.20;;
48403;SDS011;34202;52.536;6.042;2023-11-19T22:45:40;21.60;;;4.40;;
48403;SDS011;34202;52.536;6.042;2023-11-19T22:50:40;25.00;;;4.90;;
48403;SDS011;34202;52.536;6.042;2023-11-19T22:55:41;16.20;;;2.60;;
48403;SDS011;34202;52.536;6.042;2023-11-19T23:00:41;18.70;;;3.30;;
48403;SDS011;34202;52.536;6.042;2023-11-19T23:05:41;15.70;;;4.70;;
48403;SDS011;34202;52.536;6.042;2023-11-19T23:10:42;15.40;;;3.50;;
48403;SDS011;34202;52.536;6.042;2023-11-19T23:15:42;19.30;;;5.00;;
48403;SDS011;34202;52.536;6.042;2023-11-19T23:20:43;15.20;;;2.60;;
48403;SDS011;34202;52.536;6.042;2023-11-19T23:25:43;18.40;;;3.20;;
48403;SDS011;34202;52.536;6.042;2023-11-19T23:30:44;18.10;;;3.60;;
48403;SDS011;34202;52.536;6.042;2023-11-19T23:35:44;15.70;;;2.60;;
48403;SDS011;34202;52.536;6.042;2023-11-19T23:40:45;16.20;;;4.50;;
48403;SDS011;34202;52.536;6.042;2023-11-19T23:45:46;19.20;;;3.10;;
48403;SDS011;34202;52.536;6.042;2023-11-19T23:50:47;13.30;;;3.30;;
48403;SDS011;34202;52.536;6.042;2023-11-19T23:55:48;13.80;;;4.70;;
